Time;durP1;ratioP1;P1;durP2;ratioP2;P2;SDS_P1;SDS_P2;PMS_P1;PMS_P2;Temp;Humidity;BMP_temperature;BMP_pressure;BME280_temperature;BME280_humidity;BME280_pressure;Samples;Min_cycle;Max_cycle;Signal;HPM_P1;HPM_P2
2021/12/29 00:02:12;;;;;;;14.45;4.15;;;;;;;8.29;88.58;100197.59;5007602;28;20007;-62
2021/12/29 00:04:37;;;;;;;18.83;3.83;;;;;;;8.27;88.57;100205.53;5008047;28;20112;-62
2021/12/29 00:07:03;;;;;;;23.27;4.88;;;;;;;8.27;88.57;100200.28;5007479;28;20050;-63
2021/12/29 00:09:29;;;;;;;20.33;4.32;;;;;;;8.28;88.37;100215.09;5007712;28;20066;-61
2021/12/29 00:11:55;;;;;;;18.17;4.28;;;;;;;8.26;88.40;100198.56;5007657;28;20032;-61
2021/12/29 00:14:20;;;;;;;20.88;3.78;;;;;;;8.28;88.56;100217.72;5006343;28;20030;-61
2021/12/29 00:16:45;;;;;;;24.17;5.95;;;;;;;8.31;88.31;100209.75;5007881;28;20101;-62
2021/12/29 00:19:11;;;;;;;25.40;4.63;;;;;;;8.28;88.75;100217.72;5008456;28;20030;-64
2021/12/29 00:21:37;;;;;;;16.88;4.20;;;;;;;8.25;88.47;100222.25;5007097;28;20030;-61
2021/12/29 00:24:05;;;;;;;22.48;3.88;;;;;;;8.25;88.59;100228.34;5007811;28;20018;-65
2021/12/29 00:26:32;;;;;;;18.70;4.05;;;;;;;8.22;88.54;100242.44;5006349;28;20038;-61
2021/12/29 00:28:59;;;;;;;20.75;3.83;;;;;;;8.28;88.29;100251.03;5005345;28;20022;-61
2021/12/29 00:31:28;;;;;;;17.38;3.38;;;;;;;8.28;88.22;100238.72;5007552;28;20057;-62
2021/12/29 00:33:54;;;;;;;28.17;4.30;;;;;;;8.28;87.96;100245.78;5006226;28;20593;-61
2021/12/29 00:36:19;;;;;;;12.00;3.58;;;;;;;8.30;88.03;100241.31;5007794;28;20053;-60
2021/12/29 00:38:45;;;;;;;24.63;4.47;;;;;;;8.30;88.14;100251.81;5005954;28;20388;-60
2021/12/29 00:41:10;;;;;;;20.35;3.70;;;;;;;8.29;88.28;100245.72;5007669;28;20115;-61
2021/12/29 00:43:36;;;;;;;17.35;4.55;;;;;;;8.33;88.21;100254.31;4988902;28;20026;-61
2021/12/29 00:46:01;;;;;;;21.02;4.25;;;;;;;8.36;88.00;100262.09;5006347;28;20508;-60
2021/12/29 00:48:35;;;;;;;19.50;3.45;;;;;;;8.33;87.93;100268.31;5007017;28;20112;-61
2021/12/29 00:51:00;;;;;;;23.25;3.63;;;;;;;8.36;87.53;100277.00;4989704;28;20014;-61
2021/12/29 00:53:26;;;;;;;16.23;3.35;;;;;;;8.39;87.33;100274.25;5006960;28;20088;-60
2021/12/29 00:55:51;;;;;;;19.52;3.42;;;;;;;8.34;87.21;100275.28;4988601;28;20030;-63
2021/12/29 00:58:17;;;;;;;16.88;3.20;;;;;;;8.41;87.42;100278.56;4988996;28;20024;-60
2021/12/29 01:00:42;;;;;;;17.98;3.13;;;;;;;8.40;86.88;100294.38;4988969;28;20105;-62
2021/12/29 01:03:08;;;;;;;17.17;2.80;;;;;;;8.44;86.79;100290.72;5005502;28;20014;-62
2021/12/29 01:05:34;;;;;;;20.13;3.00;;;;;;;8.39;87.05;100295.25;5006480;28;20042;-60
2021/12/29 01:07:59;;;;;;;18.98;2.88;;;;;;;8.40;86.82;100315.38;5004860;28;20037;-60
2021/12/29 01:10:24;;;;;;;15.32;2.35;;;;;;;8.39;87.04;100321.50;5006242;28;20298;-61
2021/12/29 01:12:57;;;;;;;13.63;2.42;;;;;;;8.41;86.62;100327.59;5005866;28;20080;-61
2021/12/29 01:15:28;;;;;;;15.18;2.53;;;;;;;8.40;86.84;100336.38;5005029;28;20289;-61
2021/12/29 01:17:55;;;;;;;11.48;2.22;;;;;;;8.41;86.93;100328.44;5006605;28;20036;-60
2021/12/29 01:20:22;;;;;;;12.73;2.72;;;;;;;8.39;86.93;100332.00;5005833;28;20071;-60
2021/12/29 01:22:48;;;;;;;9.70;2.30;;;;;;;8.33;86.97;100326.06;5006264;28;20085;-59
2021/12/29 01:25:13;;;;;;;11.13;2.50;;;;;;;8.32;86.95;100329.63;4989417;28;20053;-61
2021/12/29 01:27:39;;;;;;;14.10;2.30;;;;;;;8.37;86.89;100341.72;5005620;28;20072;-61
2021/12/29 01:30:10;;;;;;;13.20;3.78;;;;;;;8.36;86.94;100353.97;5005422;28;20034;-61
2021/12/29 01:32:39;;;;;;;15.93;3.15;;;;;;;8.37;86.69;100368.81;5005591;28;20010;-62
2021/12/29 01:35:05;;;;;;;18.52;3.58;;;;;;;8.36;87.00;100356.59;5006404;28;20030;-63
2021/12/29 01:37:31;;;;;;;14.40;2.65;;;;;;;8.33;86.97;100375.94;5005478;28;20107;-61
2021/12/29 01:39:56;;;;;;;10.38;2.40;;;;;;;8.42;86.81;100373.94;5005846;28;20018;-61
2021/12/29 01:42:21;;;;;;;13.38;2.78;;;;;;;8.39;86.67;100371.41;5005503;28;20028;-61
2021/12/29 01:44:47;;;;;;;12.20;2.30;;;;;;;8.36;86.75;100361.88;4987906;28;20017;-62
2021/12/29 01:47:12;;;;;;;8.75;2.20;;;;;;;8.35;87.22;100375.91;5006674;28;20026;-61
2021/12/29 01:49:38;;;;;;;15.43;2.08;;;;;;;8.37;87.08;100373.22;5006260;28;20116;-60
2021/12/29 01:52:12;;;;;;;15.50;2.40;;;;;;;8.34;87.19;100369.78;4988389;28;20061;-61
2021/12/29 01:54:38;;;;;;;9.52;2.30;;;;;;;8.33;87.33;100380.34;5004512;28;20026;-61
2021/12/29 01:57:06;;;;;;;12.75;2.40;;;;;;;8.28;87.34;100383.09;5005525;28;20067;-61
2021/12/29 01:59:32;;;;;;;13.17;2.30;;;;;;;8.33;86.74;100386.47;5003460;28;20030;-62
2021/12/29 02:01:57;;;;;;;14.63;2.28;;;;;;;8.31;86.85;100385.63;5019072;28;20363;-61
2021/12/29 02:04:23;;;;;;;13.23;2.00;;;;;;;8.31;87.03;100397.91;5024292;28;20108;-61
2021/12/29 02:06:49;;;;;;;7.10;2.60;;;;;;;8.33;86.80;100393.47;5024541;28;20218;-61
2021/12/29 02:11:42;;;;;;;11.40;1.88;;;;;;;8.28;86.96;100400.63;5030327;22;20511;-60
2021/12/29 02:14:09;;;;;;;5.53;2.15;;;;;;;8.33;87.34;100403.97;5025322;28;20025;-61
2021/12/29 02:16:35;;;;;;;12.85;2.42;;;;;;;8.28;87.66;100408.50;5024838;28;20036;-60
2021/12/29 02:19:03;;;;;;;10.18;1.55;;;;;;;8.27;87.79;100391.91;5027994;28;20383;-60
2021/12/29 02:21:31;;;;;;;11.15;1.90;;;;;;;8.27;88.04;100394.53;5029745;28;20491;-62
2021/12/29 02:26:27;;;;;;;15.98;2.83;;;;;;;8.21;88.63;100407.81;5029710;28;20064;-61
2021/12/29 02:28:55;;;;;;;11.27;2.38;;;;;;;8.22;88.81;100420.06;5026208;28;20028;-62
2021/12/29 02:31:21;;;;;;;19.55;3.25;;;;;;;8.25;88.77;100412.06;5042619;28;20350;-61
2021/12/29 02:33:46;;;;;;;9.13;2.53;;;;;;;8.29;88.98;100399.72;5047484;28;20025;-61
2021/12/29 02:36:11;;;;;;;16.05;3.47;;;;;;;8.28;88.54;100411.97;5048414;28;20025;-61
2021/12/29 02:38:44;;;;;;;14.65;2.92;;;;;;;8.23;88.77;100411.28;5047533;28;20044;-60
2021/12/29 02:41:09;;;;;;;16.67;3.38;;;;;;;8.21;89.00;100415.69;5022110;28;20033;-61
2021/12/29 02:43:37;;;;;;;12.18;3.25;;;;;;;8.16;89.08;100423.72;5044439;28;20035;-62
2021/12/29 02:46:06;;;;;;;16.63;3.58;;;;;;;8.20;89.44;100429.75;5048292;28;20027;-62
2021/12/29 02:48:36;;;;;;;16.00;3.63;;;;;;;8.21;89.59;100436.69;5048551;28;20054;-61
2021/12/29 02:51:04;;;;;;;19.38;3.85;;;;;;;8.20;89.49;100429.75;5028989;28;20080;-61
2021/12/29 02:53:30;;;;;;;26.05;4.45;;;;;;;8.19;89.33;100430.66;5024003;28;20128;-61
2021/12/29 02:55:56;;;;;;;15.23;3.63;;;;;;;8.17;89.56;100453.44;5016308;28;20400;-61
2021/12/29 02:58:23;;;;;;;15.77;3.70;;;;;;;8.20;89.38;100456.00;5015631;28;20108;-61
2021/12/29 03:00:49;;;;;;;15.07;4.00;;;;;;;8.16;89.35;100454.38;5017089;28;20033;-61
2021/12/29 03:03:19;;;;;;;27.55;5.20;;;;;;;8.16;89.32;100460.47;5008318;28;20480;-60
2021/12/29 03:05:45;;;;;;;19.35;5.20;;;;;;;8.22;89.51;100469.94;5012078;28;20479;-60
2021/12/29 03:08:14;;;;;;;30.17;5.55;;;;;;;8.20;89.44;100475.22;5029603;28;20105;-60
2021/12/29 03:10:40;;;;;;;22.85;4.90;;;;;;;8.23;89.18;100492.66;5025375;28;20040;-61
2021/12/29 03:13:07;;;;;;;21.33;4.28;;;;;;;8.25;89.15;100480.31;5015496;28;20025;-61
2021/12/29 03:15:32;;;;;;;14.20;3.40;;;;;;;8.25;89.20;100479.47;5028232;28;20025;-61
2021/12/29 03:17:58;;;;;;;13.30;3.65;;;;;;;8.20;89.59;100483.09;5027848;28;20032;-60
2021/12/29 03:20:23;;;;;;;15.70;5.35;;;;;;;8.21;89.65;100479.56;5019615;28;20118;-60
2021/12/29 03:22:48;;;;;;;17.05;3.40;;;;;;;8.19;89.55;100496.28;5027970;28;20375;-60
2021/12/29 03:25:14;;;;;;;14.63;3.05;;;;;;;8.20;89.53;100498.84;5028538;28;20033;-60
2021/12/29 03:27:39;;;;;;;12.05;3.60;;;;;;;8.19;89.78;100504.16;5027143;28;20034;-62
2021/12/29 03:30:05;;;;;;;12.10;3.85;;;;;;;8.21;89.55;100497.06;5022942;28;20072;-61
2021/12/29 03:32:41;;;;;;;21.17;4.30;;;;;;;8.12;89.77;100505.25;5021155;28;20061;-61
2021/12/29 03:35:07;;;;;;;16.00;4.60;;;;;;;8.09;90.29;100516.66;5010178;28;20057;-61
2021/12/29 03:37:32;;;;;;;20.30;4.40;;;;;;;8.11;89.87;100525.34;5011042;28;20041;-61
2021/12/29 03:39:57;;;;;;;25.95;5.22;;;;;;;8.09;89.86;100530.66;5024311;28;20109;-60
2021/12/29 03:42:23;;;;;;;19.90;5.10;;;;;;;8.14;89.51;100527.91;5012422;28;20432;-61
2021/12/29 03:44:48;;;;;;;21.35;4.65;;;;;;;8.12;89.78;100527.06;5015106;28;20119;-62
2021/12/29 03:47:13;;;;;;;16.70;4.00;;;;;;;8.10;89.78;100539.41;5027143;28;20317;-61
2021/12/29 03:49:39;;;;;;;24.35;4.53;;;;;;;8.15;89.64;100544.47;5028254;28;20060;-62
2021/12/29 03:52:05;;;;;;;18.67;3.08;;;;;;;8.13;89.74;100548.94;5025660;28;20030;-62
2021/12/29 03:54:31;;;;;;;23.05;2.92;;;;;;;8.07;89.87;100550.81;5024151;28;20034;-61
2021/12/29 03:57:00;;;;;;;22.58;4.40;;;;;;;8.06;89.91;100543.84;5027860;28;20032;-61
2021/12/29 03:59:26;;;;;;;;;;;;;;;8.05;89.47;100543.91;5016821;28;20096;-61
2021/12/29 04:01:52;;;;;;;27.20;3.35;;;;;;;8.06;89.30;100546.47;5022745;28;20007;-60
2021/12/29 04:04:18;;;;;;;22.38;4.25;;;;;;;8.04;89.43;100555.31;5028026;28;20475;-62
2021/12/29 04:06:43;;;;;;;24.65;4.35;;;;;;;8.04;89.42;100550.91;5027121;28;20030;-62
2021/12/29 04:09:09;;;;;;;25.15;4.68;;;;;;;8.01;89.46;100545.72;5026250;28;20032;-61
2021/12/29 04:11:34;;;;;;;24.00;5.13;;;;;;;8.00;89.82;100545.81;5013546;28;20041;-61
2021/12/29 04:13:59;;;;;;;18.23;3.50;;;;;;;8.01;89.66;100543.09;5014762;28;20076;-61
2021/12/29 04:16:25;;;;;;;18.23;3.33;;;;;;;7.99;89.34;100547.56;5012269;28;20036;-61
2021/12/29 04:19:06;;;;;;;22.48;4.10;;;;;;;7.97;89.60;100547.59;5012174;28;20034;-61
2021/12/29 04:21:34;;;;;;;28.10;3.75;;;;;;;7.99;89.41;100536.19;5015060;28;20116;-61
2021/12/29 04:23:59;;;;;;;23.67;3.95;;;;;;;7.91;89.58;100539.03;5009648;28;20030;-61
2021/12/29 04:26:25;;;;;;;23.35;3.60;;;;;;;7.96;89.29;100552.88;5027395;28;20572;-62
2021/12/29 04:28:50;;;;;;;20.65;3.47;;;;;;;7.92;89.44;100573.09;5046657;28;20443;-62
2021/12/29 04:31:16;;;;;;;22.42;3.40;;;;;;;7.97;89.06;100571.22;5046167;28;20025;-62
2021/12/29 04:33:42;;;;;;;22.13;4.28;;;;;;;7.97;88.94;100565.97;5021785;28;20074;-61
2021/12/29 04:36:08;;;;;;;20.48;3.35;;;;;;;8.02;88.67;100565.84;5026697;28;20034;-61
2021/12/29 04:38:33;;;;;;;25.90;3.33;;;;;;;7.98;89.00;100574.72;5026009;28;20044;-63
2021/12/29 04:40:58;;;;;;;20.30;4.03;;;;;;;7.97;88.93;100586.97;5026669;28;20040;-62
2021/12/29 04:43:25;;;;;;;16.58;3.10;;;;;;;8.02;88.79;100593.84;5023752;28;20033;-61
2021/12/29 04:45:50;;;;;;;11.52;2.78;;;;;;;7.99;89.06;100600.03;5026391;28;20038;-61
2021/12/29 04:48:16;;;;;;;22.63;3.25;;;;;;;8.01;89.07;100598.22;5024829;28;20494;-63
2021/12/29 04:50:50;;;;;;;14.57;3.65;;;;;;;7.99;88.74;100600.03;5027049;28;20490;-63
2021/12/29 04:53:15;;;;;;;16.02;3.72;;;;;;;7.98;88.77;100606.19;5025998;28;20047;-61
2021/12/29 04:55:45;;;;;;;14.93;3.63;;;;;;;7.95;88.90;100611.53;5026679;28;20356;-61
2021/12/29 04:58:10;;;;;;;17.25;4.22;;;;;;;7.96;89.06;100608.84;5026645;28;20057;-62
2021/12/29 05:00:36;;;;;;;14.93;3.97;;;;;;;7.93;88.86;100605.44;5025966;28;20053;-62
2021/12/29 05:03:01;;;;;;;19.85;4.22;;;;;;;7.93;88.94;100606.31;5025741;28;20537;-63
2021/12/29 05:10:39;;;;;;;14.93;4.32;;;;;;;7.97;88.57;100610.56;5025853;28;20100;-62
2021/12/29 05:13:05;;;;;;;15.10;3.97;;;;;;;7.94;88.43;100615.03;5024820;28;20033;-61
2021/12/29 05:15:30;;;;;;;20.05;4.03;;;;;;;7.94;88.38;100607.16;5025444;28;20159;-61
2021/12/29 05:17:58;;;;;;;19.20;3.95;;;;;;;7.95;88.13;100608.91;5024539;28;20487;-61
2021/12/29 05:20:25;;;;;;;18.35;3.95;;;;;;;7.95;87.53;100619.41;5030835;28;20365;-61
2021/12/29 05:22:50;;;;;;;21.15;3.90;;;;;;;7.97;87.92;100623.69;5026260;28;20060;-61
2021/12/29 05:25:15;;;;;;;19.40;4.30;;;;;;;8.00;87.65;100619.28;5026043;28;20049;-60
2021/12/29 05:27:40;;;;;;;19.90;4.65;;;;;;;7.94;87.44;100618.53;5025600;28;20021;-61
2021/12/29 05:30:06;;;;;;;21.50;4.40;;;;;;;7.97;87.40;100605.31;5026629;28;20037;-61
2021/12/29 05:32:32;;;;;;;17.92;4.15;;;;;;;7.96;87.45;100613.22;5026257;28;20021;-61
2021/12/29 05:34:57;;;;;;;18.23;4.05;;;;;;;7.93;87.48;100615.94;5025784;28;20153;-61
2021/12/29 05:37:23;;;;;;;12.77;5.05;;;;;;;7.95;87.56;100608.91;5025222;28;20029;-62
2021/12/29 05:39:48;;;;;;;19.65;4.35;;;;;;;8.00;87.52;100616.66;5026071;28;20021;-61
2021/12/29 05:42:14;;;;;;;9.07;4.35;;;;;;;7.96;87.59;100614.09;5025770;28;20045;-58
2021/12/29 05:44:39;;;;;;;19.13;4.50;;;;;;;8.02;87.16;100614.81;5026214;28;20033;-61
2021/12/29 05:47:05;;;;;;;13.80;3.85;;;;;;;8.00;87.40;100620.13;5025860;28;20044;-61
2021/12/29 05:49:30;;;;;;;21.80;4.93;;;;;;;7.99;87.18;100617.53;5025529;28;20383;-62
2021/12/29 05:51:55;;;;;;;19.92;4.75;;;;;;;7.97;87.40;100618.44;5025328;28;20025;-62
2021/12/29 05:54:21;;;;;;;20.95;4.93;;;;;;;7.96;87.50;100626.34;5026154;28;20080;-61
2021/12/29 05:56:46;;;;;;;16.88;4.43;;;;;;;7.95;87.59;100624.66;5025408;28;20091;-62
2021/12/29 05:59:12;;;;;;;15.80;4.60;;;;;;;7.95;87.77;100629.88;5025582;28;20029;-63
2021/12/29 06:01:37;;;;;;;20.27;4.20;;;;;;;7.93;87.48;100636.94;5026255;28;20079;-63
2021/12/29 06:04:03;;;;;;;14.77;4.68;;;;;;;7.90;87.74;100634.38;5024954;28;20496;-61
2021/12/29 06:06:28;;;;;;;15.68;4.60;;;;;;;7.88;87.90;100639.66;5026024;28;20045;-60
2021/12/29 06:08:53;;;;;;;14.88;4.20;;;;;;;7.92;87.51;100635.22;5025949;28;20053;-61
2021/12/29 06:11:18;;;;;;;10.30;3.53;;;;;;;7.93;87.51;100639.56;5025359;28;20145;-61
2021/12/29 06:13:44;;;;;;;14.15;3.40;;;;;;;7.93;87.63;100642.16;5028860;28;20471;-62
2021/12/29 06:16:09;;;;;;;15.13;3.67;;;;;;;7.92;87.97;100640.47;5025839;28;20060;-62
2021/12/29 06:18:35;;;;;;;13.23;3.70;;;;;;;7.92;87.53;100645.72;5024626;28;20020;-61
2021/12/29 06:21:00;;;;;;;13.50;3.70;;;;;;;7.92;87.51;100640.47;5025273;28;20025;-61
2021/12/29 06:23:25;;;;;;;20.42;4.60;;;;;;;7.92;87.72;100640.47;5034386;28;20104;-60
2021/12/29 06:25:50;;;;;;;21.33;4.68;;;;;;;7.87;87.69;100642.31;5045509;28;20036;-60
2021/12/29 06:28:16;;;;;;;19.15;4.72;;;;;;;7.92;87.72;100635.22;5043095;28;20048;-60
2021/12/29 06:30:41;;;;;;;9.73;4.63;;;;;;;7.95;87.19;100641.22;5045897;28;20496;-61
2021/12/29 06:33:07;;;;;;;24.25;4.28;;;;;;;8.00;86.91;100643.72;5035319;28;20256;-61
2021/12/29 06:35:32;;;;;;;26.80;5.05;;;;;;;8.03;86.75;100651.53;5025465;28;20439;-60
2021/12/29 06:37:57;;;;;;;16.77;4.60;;;;;;;8.03;86.61;100656.78;5024437;28;20108;-62
2021/12/29 06:40:23;;;;;;;19.60;5.13;;;;;;;8.09;86.52;100656.63;5025704;28;20307;-60
2021/12/29 06:42:48;;;;;;;13.77;5.22;;;;;;;8.09;86.47;100659.25;5024506;28;20030;-61
2021/12/29 06:45:13;;;;;;;12.80;4.03;;;;;;;8.04;86.48;100661.13;5024682;28;20034;-62
2021/12/29 06:47:39;;;;;;;9.70;4.85;;;;;;;8.03;86.42;100669.91;5024804;28;20033;-60
2021/12/29 06:50:05;;;;;;;10.50;3.72;;;;;;;7.98;86.60;100669.16;5023571;28;20099;-62
2021/12/29 06:52:31;;;;;;;18.42;4.80;;;;;;;7.97;86.59;100662.19;5025132;28;20113;-59
2021/12/29 06:54:56;;;;;;;11.23;4.00;;;;;;;7.93;86.84;100674.53;5024490;28;20128;-62
2021/12/29 06:57:22;;;;;;;11.55;3.70;;;;;;;7.94;86.83;100670.13;5005740;28;20079;-62
2021/12/29 06:59:47;;;;;;;10.85;3.10;;;;;;;7.96;86.47;100673.59;5023088;28;20064;-59
2021/12/29 07:02:14;;;;;;;17.95;4.47;;;;;;;7.96;86.00;100678.84;5024954;28;20053;-61
2021/12/29 07:04:40;;;;;;;10.40;3.15;;;;;;;7.95;85.93;100674.50;5027971;28;20044;-61
2021/12/29 07:07:05;;;;;;;11.55;4.10;;;;;;;7.96;85.92;100679.69;5026311;28;20029;-60
2021/12/29 07:09:30;;;;;;;17.83;5.00;;;;;;;7.98;85.92;100692.78;5027664;28;20484;-62
2021/12/29 07:11:56;;;;;;;10.00;3.55;;;;;;;7.99;85.68;100689.25;5027815;28;20095;-60
2021/12/29 07:14:22;;;;;;;8.52;4.18;;;;;;;7.97;85.55;100691.91;5028106;28;20112;-60
2021/12/29 07:16:48;;;;;;;7.22;3.28;;;;;;;7.97;85.49;100691.91;5029051;28;20105;-61
2021/12/29 07:19:14;;;;;;;11.68;3.38;;;;;;;7.98;85.52;100695.41;5027712;28;20112;-61
2021/12/29 07:21:40;;;;;;;9.73;3.90;;;;;;;8.01;85.27;100702.34;5027113;28;20056;-67
2021/12/29 07:24:06;;;;;;;11.40;3.63;;;;;;;8.00;85.11;100708.50;5026827;28;20459;-64
2021/12/29 07:26:32;;;;;;;7.50;3.42;;;;;;;7.97;85.02;100715.53;5026891;28;20554;-65
2021/12/29 07:28:57;;;;;;;9.25;3.70;;;;;;;8.01;84.62;100718.06;5024363;28;20053;-63
2021/12/29 07:31:22;;;;;;;12.30;4.07;;;;;;;7.98;84.37;100719.03;5027483;28;20185;-65
2021/12/29 07:33:48;;;;;;;12.30;4.28;;;;;;;8.00;84.41;100721.59;5027464;28;20021;-66
2021/12/29 07:36:13;;;;;;;11.75;3.92;;;;;;;7.96;84.46;100716.44;5028473;28;20025;-65
2021/12/29 07:38:40;;;;;;;10.85;3.65;;;;;;;7.99;84.56;100712.00;5027578;28;20017;-65
2021/12/29 07:41:05;;;;;;;10.15;3.63;;;;;;;7.98;84.65;100713.78;5026844;28;20031;-66
2021/12/29 07:43:30;;;;;;;13.13;5.30;;;;;;;8.01;84.45;100718.06;5027173;28;20379;-64
2021/12/29 07:45:56;;;;;;;10.27;4.45;;;;;;;7.96;84.92;100710.31;5025781;28;20026;-66
2021/12/29 07:48:27;;;;;;;11.50;4.82;;;;;;;7.93;85.21;100705.13;5029617;28;20482;-64
2021/12/29 07:50:53;;;;;;;13.85;4.60;;;;;;;7.92;85.14;100693.78;5029954;28;20014;-67
2021/12/29 07:53:19;;;;;;;9.02;4.15;;;;;;;7.91;85.37;100693.81;5032483;28;20074;-66
2021/12/29 07:55:44;;;;;;;18.45;5.32;;;;;;;7.80;85.98;100697.56;5028683;28;20460;-63
2021/12/29 07:58:10;;;;;;;12.32;5.55;;;;;;;7.83;85.94;100702.75;5027063;28;20033;-66
2021/12/29 08:00:35;;;;;;;14.07;6.00;;;;;;;7.78;86.13;100701.13;5026554;28;20067;-66
2021/12/29 08:03:01;;;;;;;11.48;4.30;;;;;;;7.81;86.40;100696.69;5026729;28;20026;-67
2021/12/29 08:05:26;;;;;;;17.02;4.97;;;;;;;7.81;86.25;100704.56;5028168;28;20026;-69
2021/12/29 08:07:51;;;;;;;12.68;5.82;;;;;;;7.83;85.98;100709.78;5026931;28;20116;-67
2021/12/29 08:10:17;;;;;;;18.02;6.78;;;;;;;7.80;85.94;100701.97;5026024;28;20049;-64
2021/12/29 08:12:42;;;;;;;11.60;6.32;;;;;;;7.75;86.21;100709.94;5026433;28;20029;-64
2021/12/29 08:15:08;;;;;;;14.63;5.95;;;;;;;7.73;86.40;100708.28;5022841;28;20025;-68
2021/12/29 08:17:33;;;;;;;14.05;5.38;;;;;;;7.75;86.43;100707.31;5025106;28;20391;-66
2021/12/29 08:20:00;;;;;;;16.05;6.03;;;;;;;7.76;86.25;100706.41;5003056;28;20061;-65
2021/12/29 08:22:25;;;;;;;17.92;5.47;;;;;;;7.77;86.21;100718.63;5026251;28;20111;-66
2021/12/29 08:24:50;;;;;;;8.90;5.47;;;;;;;7.80;86.14;100717.72;5026432;28;20022;-65
2021/12/29 08:27:16;;;;;;;13.55;6.15;;;;;;;7.77;86.21;100715.16;5026206;28;20033;-67
2021/12/29 08:29:41;;;;;;;12.68;5.05;;;;;;;7.78;86.21;100711.63;5026757;28;20025;-66
2021/12/29 08:32:07;;;;;;;20.23;6.43;;;;;;;7.77;86.26;100705.50;5025348;28;20041;-65
2021/12/29 08:34:32;;;;;;;14.88;6.35;;;;;;;7.77;86.66;100702.88;5024503;28;20027;-67
2021/12/29 08:36:57;;;;;;;23.48;7.65;;;;;;;7.75;86.62;100712.56;5026655;28;20432;-66
2021/12/29 08:39:23;;;;;;;17.30;7.45;;;;;;;7.73;86.81;100719.59;5020410;28;20508;-63
2021/12/29 08:41:49;;;;;;;18.15;6.72;;;;;;;7.76;86.49;100724.78;5023005;28;20025;-63
2021/12/29 08:44:15;;;;;;;17.05;7.72;;;;;;;7.76;86.66;100729.16;5023937;28;20369;-65
2021/12/29 08:46:40;;;;;;;15.05;6.40;;;;;;;7.76;86.85;100724.78;5022772;28;20044;-66
2021/12/29 08:49:06;;;;;;;13.52;7.03;;;;;;;7.76;86.88;100724.78;5022761;28;20021;-65
2021/12/29 08:51:31;;;;;;;16.58;7.63;;;;;;;7.76;86.87;100716.91;5025807;28;20022;-66
2021/12/29 08:53:57;;;;;;;12.55;6.60;;;;;;;7.84;86.60;100717.59;5028926;28;20547;-66
2021/12/29 08:56:23;;;;;;;17.45;7.70;;;;;;;7.89;86.34;100712.22;5013854;28;20026;-66
2021/12/29 08:58:50;;;;;;;17.15;7.13;;;;;;;7.90;86.17;100718.34;5016725;28;20024;-66
2021/12/29 09:01:16;;;;;;;21.55;8.25;;;;;;;7.89;86.21;100719.25;5025177;28;20496;-64
2021/12/29 09:03:41;;;;;;;18.08;6.65;;;;;;;7.86;86.14;100709.69;5015374;28;20018;-62
2021/12/29 09:06:07;;;;;;;19.88;7.43;;;;;;;7.76;86.58;100703.78;5018244;28;20104;-66
2021/12/29 09:08:32;;;;;;;13.85;6.30;;;;;;;7.75;86.59;100690.72;5023553;28;20068;-67
2021/12/29 09:10:57;;;;;;;20.65;8.25;;;;;;;7.68;87.15;100698.72;5025581;28;20038;-72
2021/12/29 09:13:23;;;;;;;14.20;6.60;;;;;;;7.75;86.81;100706.44;5024916;28;20141;-69
2021/12/29 09:15:49;;;;;;;17.35;7.53;;;;;;;7.74;86.96;100705.63;5020361;28;20034;-61
2021/12/29 09:18:15;;;;;;;18.08;7.68;;;;;;;7.79;86.75;100708.97;5023411;28;20033;-63
2021/12/29 09:20:45;;;;;;;20.92;5.80;;;;;;;7.83;86.64;100708.00;5025675;28;20029;-62
2021/12/29 09:23:13;;;;;;;16.63;7.03;;;;;;;7.81;86.33;100691.44;5025959;28;20465;-65
2021/12/29 09:25:39;;;;;;;13.10;6.00;;;;;;;7.87;86.31;100694.78;5025636;28;20033;-70
2021/12/29 09:28:05;;;;;;;11.40;6.05;;;;;;;7.89;86.11;100693.00;5024484;28;20037;-69
2021/12/29 09:30:33;;;;;;;14.45;7.28;;;;;;;7.91;85.95;100686.81;5021497;28;20056;-72
2021/12/29 09:32:59;;;;;;;15.77;6.72;;;;;;;7.87;85.70;100700.03;5003279;28;20116;-67
2021/12/29 09:35:24;;;;;;;19.25;5.88;;;;;;;7.86;85.67;100711.44;5022520;28;20158;-71
2021/12/29 09:37:52;;;;;;;17.05;5.80;;;;;;;7.89;85.66;100709.59;5022561;28;20503;-70
2021/12/29 09:40:20;;;;;;;13.90;5.32;;;;;;;8.00;85.00;100716.38;5024432;28;20508;-66
2021/12/29 09:42:45;;;;;;;14.77;5.20;;;;;;;7.98;84.41;100705.91;5026048;28;20026;-67
2021/12/29 09:45:11;;;;;;;12.25;5.40;;;;;;;7.98;84.32;100711.16;5024368;28;20067;-69
2021/12/29 09:47:36;;;;;;;11.02;5.20;;;;;;;8.02;84.01;100710.16;5022228;28;20521;-68
2021/12/29 09:50:05;;;;;;;9.60;4.63;;;;;;;8.02;83.77;100694.41;5024525;28;20022;-67
2021/12/29 09:52:33;;;;;;;9.75;5.13;;;;;;;7.95;83.34;100692.84;5025489;28;20026;-69
2021/12/29 09:54:59;;;;;;;13.18;6.28;;;;;;;7.97;83.38;100680.53;5024137;28;20468;-68
2021/12/29 09:57:24;;;;;;;8.93;4.22;;;;;;;7.96;83.68;100684.06;5021401;28;20025;-69
2021/12/29 09:59:50;;;;;;;12.25;4.47;;;;;;;7.97;83.58;100680.53;5019311;28;20029;-69
2021/12/29 10:02:15;;;;;;;8.13;5.82;;;;;;;7.98;83.13;100682.28;5010252;28;20035;-68
2021/12/29 10:04:40;;;;;;;10.00;5.35;;;;;;;8.01;83.03;100674.31;5006317;28;20025;-67
2021/12/29 10:07:11;;;;;;;10.98;5.55;;;;;;;7.86;83.05;100667.72;5023090;28;20082;-66
2021/12/29 10:09:36;;;;;;;10.23;5.22;;;;;;;7.84;83.58;100670.38;5017122;28;20071;-66
2021/12/29 10:12:07;;;;;;;9.10;5.65;;;;;;;7.90;83.17;100660.63;5011711;28;20029;-62
2021/12/29 10:14:33;;;;;;;12.90;5.10;;;;;;;7.94;83.49;100664.88;5003327;28;20029;-66
2021/12/29 10:16:58;;;;;;;14.07;4.75;;;;;;;8.02;82.84;100652.44;4992160;28;20014;-65
2021/12/29 10:19:24;;;;;;;7.78;5.25;;;;;;;8.00;82.43;100659.47;4994428;28;20576;-61
2021/12/29 10:21:50;;;;;;;14.98;5.55;;;;;;;8.06;82.90;100663.69;4997912;28;20029;-67
2021/12/29 10:24:18;;;;;;;8.75;5.05;;;;;;;8.17;82.40;100655.53;5018374;28;20568;-65
2021/12/29 10:26:46;;;;;;;11.27;5.05;;;;;;;8.26;81.90;100652.69;5021268;28;20029;-63
2021/12/29 10:29:20;;;;;;;8.90;5.03;;;;;;;8.28;81.77;100645.59;5004693;28;20365;-65
2021/12/29 10:31:49;;;;;;;11.23;6.25;;;;;;;8.30;81.76;100651.69;5003188;28;20503;-65
2021/12/29 10:34:20;;;;;;;12.67;4.50;;;;;;;8.32;81.90;100652.53;5012078;28;20201;-64
2021/12/29 10:36:49;;;;;;;10.32;4.78;;;;;;;8.32;81.95;100655.16;5007107;28;20512;-63
2021/12/29 10:39:21;;;;;;;20.13;5.60;;;;;;;8.31;81.99;100656.03;5005585;28;20542;-58
2021/12/29 10:41:52;;;;;;;10.90;4.45;;;;;;;8.40;81.51;100660.16;5007987;28;20080;-69
2021/12/29 10:44:33;;;;;;;10.43;4.60;;;;;;;8.38;81.45;100662.00;5010943;28;20113;-69
2021/12/29 10:47:02;;;;;;;14.05;5.03;;;;;;;8.34;81.87;100666.44;5004551;28;20107;-69
2021/12/29 10:49:28;;;;;;;13.07;5.20;;;;;;;8.43;81.84;100672.38;4999261;28;20054;-69
2021/12/29 10:51:58;;;;;;;10.85;4.97;;;;;;;8.43;81.55;100675.00;5008662;28;20021;-71
2021/12/29 10:54:26;;;;;;;13.63;5.10;;;;;;;8.47;81.16;100676.63;5007710;28;20696;-69
2021/12/29 10:57:04;;;;;;;7.18;4.32;;;;;;;8.54;80.85;100680.81;5005484;28;20041;-70
2021/12/29 10:59:33;;;;;;;9.57;4.57;;;;;;;8.46;80.72;100670.50;5008747;28;20036;-68
2021/12/29 11:01:59;;;;;;;9.48;5.93;;;;;;;8.41;81.00;100672.41;5007628;28;20032;-68
2021/12/29 11:04:25;;;;;;;13.20;5.38;;;;;;;8.34;81.21;100668.22;5006371;28;20037;-70
2021/12/29 11:06:55;;;;;;;11.48;5.45;;;;;;;8.23;81.87;100650.13;5010117;28;20743;-71
2021/12/29 11:09:38;;;;;;;14.35;6.35;;;;;;;8.21;82.09;100631.81;5005755;28;20049;-62
2021/12/29 11:12:12;;;;;;;11.65;6.40;;;;;;;8.16;82.48;100623.19;5006549;28;20503;-63
2021/12/29 11:14:42;;;;;;;11.43;5.22;;;;;;;8.26;82.18;100622.94;5006471;28;20610;-65
2021/12/29 11:17:21;;;;;;;12.63;6.80;;;;;;;8.21;82.68;100625.69;5003108;28;20033;-63
2021/12/29 11:19:53;;;;;;;12.23;7.47;;;;;;;8.24;82.66;100624.75;5005523;28;20032;-69
2021/12/29 11:22:21;;;;;;;11.30;6.65;;;;;;;8.24;82.69;100633.47;5008160;28;20108;-69
2021/12/29 11:24:59;;;;;;;16.20;7.18;;;;;;;8.27;82.49;100625.53;5006787;28;20163;-72
2021/12/29 11:27:27;;;;;;;12.47;6.63;;;;;;;8.32;82.48;100613.13;5007362;28;20037;-64
2021/12/29 11:29:55;;;;;;;15.45;7.07;;;;;;;8.30;82.54;100604.44;5006977;28;20025;-64
2021/12/29 11:32:24;;;;;;;11.35;7.15;;;;;;;8.39;82.00;100599.81;5008563;28;20024;-65
2021/12/29 11:35:01;;;;;;;12.05;7.32;;;;;;;8.33;82.67;100604.34;5006375;28;20091;-65